• Join FlightAware (Why Join?)
  • Login
  • US Flag GB Flag 
11:16 EDT


 

Airport Tracker/Info


-or-


 

Live Flight TrackerFlight Track Log ✈ USC105 ✈ 19-Apr-2013 ✈ KYIP - KLCK

Flight Track Log - Related Links

Times and Time Zones

All times are in EDT time to prevent confusion due to time zone crossing. See the USC105 flight status page for this flight to view local times or setup timezone preferences in your user account.

Time Position Orientation Groundspeed Altitude Reporting Facility
EDT Latitude Longitude Course Direction KTS MPH feet Rate Location/Type
07:23 42.2417 -83.5656 275° West 113 130 1,700  Level FAA TRACON SMA TRACON (SMA)
07:23 42.2397 -83.5764 256° West 97 112 2,000 840 Climbing FAA TRACON SMA TRACON (SMA)
07:24 42.2353 -83.5861 238° Southwest 103 119 2,300 1,140 Climbing FAA TRACON SMA TRACON (SMA)
07:24 42.2269 -83.5947 217° Southwest 95 109 2,800 1,200 Climbing FAA TRACON SMA TRACON (SMA)
07:24 42.2200 -83.6017 217° Southwest 95 109 3,100 900 Climbing FAA TRACON SMA TRACON (SMA)
07:25 42.2136 -83.6075 214° Southwest 91 105 3,400 1,020 Climbing FAA TRACON SMA TRACON (SMA)
07:25 42.2058 -83.6150 216° Southwest 90 104 3,800 720 Climbing FAA TRACON SMA TRACON (SMA)
07:25 42.1989 -83.6219 217° Southwest 102 117 3,900 300 Climbing FAA TRACON SMA TRACON (SMA)
07:26 42.1906 -83.6314 220° Southwest 121 139 4,000 120 Climbing FAA TRACON SMA TRACON (SMA)
07:26 42.1778 -83.6364 196° South 154 177 4,000  Level FAA TRACON SMA TRACON (SMA)
07:26 42.1656 -83.6292 156° South 158 182 4,000  Level FAA TRACON SMA TRACON (SMA)
07:27 42.1531 -83.6217 156° South 159 183 4,000  Level FAA TRACON SMA TRACON (SMA)
07:27 42.1372 -83.6103 152° Southeast 164 189 4,000  Level FAA TRACON SMA TRACON (SMA)
07:27 42.1247 -83.6011 151° Southeast 167 192 4,000  Level FAA TRACON SMA TRACON (SMA)
07:28 42.1122 -83.5919 151° Southeast 166 191 4,000  Level FAA TRACON SMA TRACON (SMA)
07:28 42.0964 -83.5800 151° Southeast 169 194 4,000  Level FAA TRACON SMA TRACON (SMA)
07:28 42.0833 -83.5706 152° Southeast 169 194 4,000  Level FAA TRACON SMA TRACON (SMA)
07:29 42.0703 -83.5611 152° Southeast 171 197 4,000  Level FAA TRACON SMA TRACON (SMA)
07:29 42.0536 -83.5492 152° Southeast 175 201 4,000  Level FAA TRACON SMA TRACON (SMA)
07:29 42.0383 -83.5378 151° Southeast 175 201 4,000  Level FAA TRACON SMA TRACON (SMA)
07:30 42.0258 -83.5283 151° Southeast 176 203 4,000 -180 Level FAA TRACON SMA TRACON (SMA)
07:30 42.0111 -83.5169 150° Southeast 177 204 3,900  Descending FAA TRACON SMA TRACON (SMA)
07:30 41.9947 -83.5042 150° Southeast 176 203 4,000 120 Climbing FAA TRACON SMA TRACON (SMA)
07:31 41.9828 -83.4944 149° Southeast 173 199 4,000  Level FAA TRACON SMA TRACON (SMA)
07:31 41.9675 -83.4822 149° Southeast 174 200 4,000  Level FAA TRACON SMA TRACON (SMA)
07:31 41.9550 -83.4728 151° Southeast 173 199 4,000 120 Level FAA TRACON SMA TRACON (SMA)
07:32 41.9436 -83.4642 151° Southeast 164 189 4,100 900 Climbing FAA TRACON SMA TRACON (SMA)
07:32 41.9308 -83.4533 148° Southeast 134 154 4,600 1,200 Climbing FAA TRACON SMA TRACON (SMA)
07:32 41.9211 -83.4478 157° South 119 137 4,900 900 Climbing FAA TRACON SMA TRACON (SMA)
07:33 41.9117 -83.4447 166° South 108 124 5,200 720 Climbing FAA TRACON SMA TRACON (SMA)
07:33 41.8997 -83.4389 160° South 117 135 5,400 540 Climbing FAA TRACON SMA TRACON (SMA)
07:33 41.8903 -83.4358 166° South 113 130 5,600 540 Climbing FAA TRACON SMA TRACON (SMA)
07:34 41.8814 -83.4344 173° South 109 125 5,800 600 Climbing FAA TRACON SMA TRACON (SMA)
07:34 41.8700 -83.4314 169° South 106 122 6,000 720 Climbing FAA TRACON SMA TRACON (SMA)
07:34 41.8614 -83.4286 166° South 105 121 6,300 600 Climbing FAA TRACON SMA TRACON (SMA)
07:35 41.8531 -83.4269 172° South 101 116 6,400 600 Climbing FAA TRACON SMA TRACON (SMA)
07:35 41.8428 -83.4244 170° South 98 113 6,700 720 Climbing FAA TRACON SMA TRACON (SMA)
07:35 41.8347 -83.4225 170° South 98 113 6,900 300 Climbing FAA TRACON SMA TRACON (SMA)
07:36 41.8256 -83.4200 169° South 105 121 6,900  Level FAA TRACON SMA TRACON (SMA)
07:36 41.8122 -83.4175 172° South 121 139 6,900  Level FAA TRACON SMA TRACON (SMA)
07:36 41.8014 -83.4142 167° South 127 146 6,900  Level FAA TRACON SMA TRACON (SMA)
07:37 41.7906 -83.4114 169° South 128 147 6,900  Level FAA TRACON SMA TRACON (SMA)
07:37 41.7767 -83.4081 170° South 130 150 6,900  Level FAA TRACON SMA TRACON (SMA)
07:37 41.7653 -83.4050 169° South 134 154 6,900  Level FAA TRACON SMA TRACON (SMA)
07:38 41.7539 -83.4014 167° South 135 155 6,900 -180 Level FAA TRACON SMA TRACON (SMA)
07:38 41.7397 -83.3981 170° South 134 154 6,800  Descending FAA TRACON SMA TRACON (SMA)
07:38 41.7283 -83.3958 172° South 134 154 6,900  Climbing FAA TRACON SMA TRACON (SMA)
07:39 41.7169 -83.3936 172° South 133 153 6,800  Descending FAA TRACON SMA TRACON (SMA)
07:39 41.7031 -83.3889 166° South 133 153 6,900  Climbing FAA TRACON SMA TRACON (SMA)
07:39 41.6919 -83.3853 166° South 134 154 6,800 -180 Descending FAA TRACON SMA TRACON (SMA)
07:40 41.6808 -83.3828 170° South 133 153 6,800 120 Level FAA TRACON SMA TRACON (SMA)
07:40 41.6667 -83.3803 172° South 133 153 6,900  Climbing FAA TRACON SMA TRACON (SMA)
07:40 41.6553 -83.3775 170° South 133 153 6,800  Descending FAA TRACON SMA TRACON (SMA)
07:41 41.6444 -83.3742 167° South 132 152 6,900 120 Climbing FAA TRACON SMA TRACON (SMA)
07:41 41.6303 -83.3708 170° South 132 152 6,900 -180 Level FAA TRACON SMA TRACON (SMA)
07:41 41.6192 -83.3681 169° South 132 152 6,800 -180 Descending FAA TRACON SMA TRACON (SMA)
07:42 41.6081 -83.3658 171° South 132 152 6,800 120 Level FAA TRACON SMA TRACON (SMA)
07:42 41.5942 -83.3622 169° South 132 152 6,900 120 Climbing FAA TRACON SMA TRACON (SMA)
07:42 41.5831 -83.3592 168° South 131 151 6,900 -180 Level FAA TRACON SMA TRACON (SMA)
07:43 41.5719 -83.3564 169° South 131 151 6,800  Descending FAA TRACON SMA TRACON (SMA)
07:43 41.5575 -83.3525 169° South 135 155 6,900  Climbing FAA TRACON SMA TRACON (SMA)
07:43 41.5461 -83.3494 169° South 135 155 6,800 -180 Descending FAA TRACON SMA TRACON (SMA)
07:44 41.5347 -83.3467 170° South 134 154 6,800  Level FAA TRACON SMA TRACON (SMA)
07:44 41.5206 -83.3433 170° South 134 154 6,800 120 Level FAA TRACON SMA TRACON (SMA)
07:44 41.5094 -83.3406 169° South 134 154 6,900 -180 Climbing FAA TRACON SMA TRACON (SMA)
07:45 41.4981 -83.3378 170° South 134 154 6,700 -1,080 Descending FAA TRACON SMA TRACON (SMA)
07:45 41.4828 -83.3336 168° South 145 167 6,200 -1,080 Descending FAA TRACON SMA TRACON (SMA)
07:45 41.4689 -83.3306 171° South 157 181 6,000 -600 Descending FAA TRACON SMA TRACON (SMA)
07:46 41.4553 -83.3269 169° South 161 185 5,800 -900 Descending FAA TRACON SMA TRACON (SMA)
07:46 41.4383 -83.3228 170° South 160 184 5,400 -1,080 Descending FAA TRACON SMA TRACON (SMA)
07:46 41.4247 -83.3194 170° South 161 185 5,100 -1,080 Descending FAA TRACON SMA TRACON (SMA)
07:47 41.4106 -83.3164 171° South 164 189 4,700 -1,200 Descending FAA TRACON SMA TRACON (SMA)
07:47 41.3922 -83.3114 168° South 171 197 4,300 -780 Descending FAA TRACON SMA TRACON (SMA)
07:47 41.3772 -83.3069 167° South 174 200 4,200 -600 Descending FAA TRACON SMA TRACON (SMA)
07:48 41.3622 -83.3028 168° South 176 203 3,900 -960 Descending FAA TRACON SMA TRACON (SMA)
07:48 41.3472 -83.2986 168° South 177 204 3,600 -600 Descending FAA TRACON SMA TRACON (SMA)
07:48 41.3394 -83.2967 169° South 178 205 3,500 -180 Descending FAA TRACON SMA TRACON (SMA)
07:49 41.3394 -83.2967 29° Northeast 178 205 3,500 -300 Level FAA TRACON SMA TRACON (SMA)
07:50 41.2253 -83.2689 170° South 184 212 3,000 -240 Descending Indianapolis Center
07:51 41.1761 -83.2564 169° South 183 211 3,000  Level Indianapolis Center
07:52 41.1283 -83.2444 169° South 179 206 3,000  Level Indianapolis Center
07:53 41.0803 -83.2342 171° South 176 203 3,100  Climbing Indianapolis Center
07:54 41.0308 -83.2200 168° South 176 203 3,000 -60 Descending Indianapolis Center
07:55 40.9808 -83.2078 170° South 179 206 3,000  Level Indianapolis Center
07:56 40.9325 -83.1975 171° South 177 204 3,000  Level Indianapolis Center
07:57 40.8828 -83.1844 169° South 178 205 3,000  Level Indianapolis Center
07:58 40.8331 -83.1719 169° South 180 207 3,000  Level Indianapolis Center
07:59 40.7814 -83.1589 169° South 181 208 3,000  Level Indianapolis Center
08:00 40.7339 -83.1481 170° South 179 206 3,000  Level Indianapolis Center
08:01 40.6764 -83.1328 169° South 179 206 3,000  Level Indianapolis Center
08:03 40.6275 -83.1222 171° South 178 205 3,000  Level Indianapolis Center
08:04 40.5836 -83.1117 170° South 179 206 3,000  Level Indianapolis Center
08:05 40.5253 -83.0978 170° South 180 207 3,000  Level Indianapolis Center
08:06 40.4761 -83.0853 169° South 179 206 3,000  Level Indianapolis Center
08:07 40.4269 -83.0756 171° South 178 205 3,000  Level Indianapolis Center
08:08 40.3786 -83.0806 185° South 176 203 3,000  Level Indianapolis Center
08:09 40.3303 -83.0867 186° South 174 200 3,000  Level Indianapolis Center
08:10 40.2819 -83.0917 185° South 173 199 3,000 180 Level Indianapolis Center
08:11 40.2353 -83.0969 185° South 170 196 3,400 480 Climbing Indianapolis Center
08:12 40.1986 -83.1028 187° South 149 171 4,000 300 Climbing Indianapolis Center
08:13 40.1564 -83.1106 188° South 159 183 4,000  Level Indianapolis Center
08:14 40.1131 -83.1181 188° South 151 174 4,000  Level Indianapolis Center
08:15 40.0650 -83.1297 191° South 158 182 4,000  Level Indianapolis Center
08:16 40.0206 -83.1381 188° South 159 183 4,000  Level Indianapolis Center
08:17 39.9761 -83.1439 186° South 157 181 4,000  Level Indianapolis Center
08:18 39.9358 -83.1200 156° South 157 181 4,000  Level Indianapolis Center
08:19 39.9136 -83.0767 124° Southeast 152 175 4,000  Level Indianapolis Center
08:20 39.9006 -83.0264 109° East 146 168 4,000  Level Indianapolis Center
08:21 39.8828 -82.9703 112° Southeast 150 173 4,000 -60 Level Indianapolis Center
08:22 39.8658 -82.9217 114° Southeast 160 184 3,900 -600 Descending Indianapolis Center
08:23 39.8411 -82.8539 115° Southeast 204 235 2,900 -480 Descending Indianapolis Center
08:24 39.8275 -82.8033 109° East 190 219 3,000  Climbing Indianapolis Center
08:25 39.8628 -82.7475 51° Northeast 180 207 2,900 -60 Descending Indianapolis Center
08:26 39.9036 -82.7306 18° North 155 178 2,900  Level Indianapolis Center
08:27 39.9136 -82.7669 290° West 106 122 2,900  Level Indianapolis Center
08:28 39.9011 -82.7981 242° Southwest 103 119 3,000 -360 Climbing Indianapolis Center
08:29 39.8842 -82.8342 239° Southwest 126 145 2,300 -600 Descending Indianapolis Center
08:30 39.8636 -82.8592 223° Southwest 94 108 1,800 -420 Descending Indianapolis Center
08:31 39.8494 -82.8819 231° Southwest 79 91 1,500 -480 Descending Indianapolis Center
08:32 39.8289 -82.9094 226° Southwest 97 112 800 -660 Descending Indianapolis Center